sensor_id;sensor_type;location;lat;lon;timestamp;P1;durP1;ratioP1;P2;durP2;ratioP2
51260;SDS011;61705;46.228;24.812;2022-11-15T00:00:54;57.50;;;19.58;;
51260;SDS011;61705;46.228;24.812;2022-11-15T00:03:25;78.40;;;19.05;;
51260;SDS011;61705;46.228;24.812;2022-11-15T00:05:53;44.17;;;17.63;;
51260;SDS011;61705;46.228;24.812;2022-11-15T00:08:20;46.08;;;17.17;;
51260;SDS011;61705;46.228;24.812;2022-11-15T00:11:00;41.65;;;15.48;;
51260;SDS011;61705;46.228;24.812;2022-11-15T00:13:27;52.05;;;18.30;;
51260;SDS011;61705;46.228;24.812;2022-11-15T00:15:59;47.72;;;18.05;;
51260;SDS011;61705;46.228;24.812;2022-11-15T00:18:27;70.97;;;19.30;;
51260;SDS011;61705;46.228;24.812;2022-11-15T00:20:55;54.83;;;17.95;;
51260;SDS011;61705;46.228;24.812;2022-11-15T00:23:22;45.65;;;16.75;;
51260;SDS011;61705;46.228;24.812;2022-11-15T00:25:55;48.20;;;15.60;;
51260;SDS011;61705;46.228;24.812;2022-11-15T00:28:23;45.78;;;17.20;;
51260;SDS011;61705;46.228;24.812;2022-11-15T00:30:50;72.82;;;18.25;;
51260;SDS011;61705;46.228;24.812;2022-11-15T00:33:17;75.75;;;25.05;;
51260;SDS011;61705;46.228;24.812;2022-11-15T00:35:44;45.17;;;17.33;;
51260;SDS011;61705;46.228;24.812;2022-11-15T00:38:11;51.28;;;18.25;;
51260;SDS011;61705;46.228;24.812;2022-11-15T00:40:38;54.95;;;20.08;;
51260;SDS011;61705;46.228;24.812;2022-11-15T00:43:04;40.35;;;17.40;;
51260;SDS011;61705;46.228;24.812;2022-11-15T00:45:31;65.63;;;18.58;;
51260;SDS011;61705;46.228;24.812;2022-11-15T00:47:58;63.72;;;19.52;;
51260;SDS011;61705;46.228;24.812;2022-11-15T00:50:24;50.40;;;17.90;;
51260;SDS011;61705;46.228;24.812;2022-11-15T00:52:51;73.55;;;20.42;;
51260;SDS011;61705;46.228;24.812;2022-11-15T00:55:18;62.67;;;20.45;;
51260;SDS011;61705;46.228;24.812;2022-11-15T00:57:45;56.50;;;19.88;;
51260;SDS011;61705;46.228;24.812;2022-11-15T01:00:13;56.83;;;18.48;;
51260;SDS011;61705;46.228;24.812;2022-11-15T01:02:40;59.03;;;16.67;;
51260;SDS011;61705;46.228;24.812;2022-11-15T01:05:06;43.47;;;12.95;;
51260;SDS011;61705;46.228;24.812;2022-11-15T01:07:35;35.97;;;13.80;;
51260;SDS011;61705;46.228;24.812;2022-11-15T01:10:01;43.72;;;17.40;;
51260;SDS011;61705;46.228;24.812;2022-11-15T01:12:29;35.50;;;15.80;;
51260;SDS011;61705;46.228;24.812;2022-11-15T01:14:56;53.13;;;17.55;;
51260;SDS011;61705;46.228;24.812;2022-11-15T01:17:22;39.72;;;15.02;;
51260;SDS011;61705;46.228;24.812;2022-11-15T01:19:49;32.33;;;14.25;;
51260;SDS011;61705;46.228;24.812;2022-11-15T01:22:16;44.92;;;15.20;;
51260;SDS011;61705;46.228;24.812;2022-11-15T01:24:43;44.58;;;15.55;;
51260;SDS011;61705;46.228;24.812;2022-11-15T01:27:10;38.58;;;15.35;;
51260;SDS011;61705;46.228;24.812;2022-11-15T01:29:36;41.75;;;16.77;;
51260;SDS011;61705;46.228;24.812;2022-11-15T01:32:03;48.50;;;16.38;;
51260;SDS011;61705;46.228;24.812;2022-11-15T01:34:30;48.17;;;18.08;;
51260;SDS011;61705;46.228;24.812;2022-11-15T01:36:56;39.72;;;14.38;;
51260;SDS011;61705;46.228;24.812;2022-11-15T01:39:23;50.20;;;15.20;;
51260;SDS011;61705;46.228;24.812;2022-11-15T01:41:49;55.13;;;17.00;;
51260;SDS011;61705;46.228;24.812;2022-11-15T01:44:31;69.35;;;20.08;;
51260;SDS011;61705;46.228;24.812;2022-11-15T01:46:58;58.85;;;20.35;;
51260;SDS011;61705;46.228;24.812;2022-11-15T01:49:27;30.02;;;12.52;;
51260;SDS011;61705;46.228;24.812;2022-11-15T01:51:58;36.38;;;14.27;;
51260;SDS011;61705;46.228;24.812;2022-11-15T01:54:30;46.13;;;13.85;;
51260;SDS011;61705;46.228;24.812;2022-11-15T01:57:07;29.80;;;13.60;;
51260;SDS011;61705;46.228;24.812;2022-11-15T01:59:37;37.65;;;14.18;;
51260;SDS011;61705;46.228;24.812;2022-11-15T02:02:06;36.83;;;15.23;;
51260;SDS011;61705;46.228;24.812;2022-11-15T02:04:34;38.15;;;14.23;;
51260;SDS011;61705;46.228;24.812;2022-11-15T02:07:05;36.67;;;16.02;;
51260;SDS011;61705;46.228;24.812;2022-11-15T02:09:35;36.85;;;15.88;;
51260;SDS011;61705;46.228;24.812;2022-11-15T02:12:03;44.88;;;17.70;;
51260;SDS011;61705;46.228;24.812;2022-11-15T02:14:31;50.72;;;17.65;;
51260;SDS011;61705;46.228;24.812;2022-11-15T02:17:07;36.22;;;14.18;;
51260;SDS011;61705;46.228;24.812;2022-11-15T02:32:10;34.85;;;13.55;;
51260;SDS011;61705;46.228;24.812;2022-11-15T02:37:39;35.67;;;15.95;;
51260;SDS011;61705;46.228;24.812;2022-11-15T02:40:26;49.47;;;17.40;;
51260;SDS011;61705;46.228;24.812;2022-11-15T02:43:00;53.42;;;18.50;;
51260;SDS011;61705;46.228;24.812;2022-11-15T02:48:31;33.80;;;13.30;;
51260;SDS011;61705;46.228;24.812;2022-11-15T02:50:59;27.33;;;11.32;;
51260;SDS011;61705;46.228;24.812;2022-11-15T02:53:27;28.05;;;12.18;;
51260;SDS011;61705;46.228;24.812;2022-11-15T02:55:54;50.15;;;14.13;;
51260;SDS011;61705;46.228;24.812;2022-11-15T03:03:50;25.92;;;11.40;;
51260;SDS011;61705;46.228;24.812;2022-11-15T03:09:50;28.67;;;12.20;;
51260;SDS011;61705;46.228;24.812;2022-11-15T03:11:58;28.42;;;10.98;;
51260;SDS011;61705;46.228;24.812;2022-11-15T03:14:31;40.05;;;14.38;;
51260;SDS011;61705;46.228;24.812;2022-11-15T03:17:15;38.03;;;15.15;;
51260;SDS011;61705;46.228;24.812;2022-11-15T03:19:49;45.70;;;12.02;;
51260;SDS011;61705;46.228;24.812;2022-11-15T03:22:19;34.97;;;13.82;;
51260;SDS011;61705;46.228;24.812;2022-11-15T03:24:50;31.13;;;13.02;;
51260;SDS011;61705;46.228;24.812;2022-11-15T03:27:20;29.77;;;14.05;;
51260;SDS011;61705;46.228;24.812;2022-11-15T03:29:51;35.72;;;14.18;;
51260;SDS011;61705;46.228;24.812;2022-11-15T03:32:23;62.83;;;18.42;;
51260;SDS011;61705;46.228;24.812;2022-11-15T03:37:36;57.55;;;17.58;;
51260;SDS011;61705;46.228;24.812;2022-11-15T03:40:07;36.10;;;14.90;;
51260;SDS011;61705;46.228;24.812;2022-11-15T03:42:37;67.80;;;16.70;;
51260;SDS011;61705;46.228;24.812;2022-11-15T03:48:18;50.03;;;17.05;;
51260;SDS011;61705;46.228;24.812;2022-11-15T03:50:49;41.53;;;16.92;;
51260;SDS011;61705;46.228;24.812;2022-11-15T03:53:16;74.53;;;18.10;;
51260;SDS011;61705;46.228;24.812;2022-11-15T03:55:43;46.53;;;13.05;;
51260;SDS011;61705;46.228;24.812;2022-11-15T03:58:10;44.15;;;15.85;;
51260;SDS011;61705;46.228;24.812;2022-11-15T04:00:36;56.10;;;20.50;;
51260;SDS011;61705;46.228;24.812;2022-11-15T04:03:03;51.28;;;17.20;;
51260;SDS011;61705;46.228;24.812;2022-11-15T04:05:30;37.00;;;13.15;;
51260;SDS011;61705;46.228;24.812;2022-11-15T04:07:56;46.15;;;16.35;;
51260;SDS011;61705;46.228;24.812;2022-11-15T04:10:23;44.10;;;15.35;;
51260;SDS011;61705;46.228;24.812;2022-11-15T04:12:50;39.95;;;16.10;;
51260;SDS011;61705;46.228;24.812;2022-11-15T04:15:18;19.67;;;9.13;;
51260;SDS011;61705;46.228;24.812;2022-11-15T04:17:50;37.25;;;15.40;;
51260;SDS011;61705;46.228;24.812;2022-11-15T04:20:23;37.88;;;16.13;;
51260;SDS011;61705;46.228;24.812;2022-11-15T04:26:03;69.65;;;14.77;;
51260;SDS011;61705;46.228;24.812;2022-11-15T04:28:31;45.92;;;17.73;;
51260;SDS011;61705;46.228;24.812;2022-11-15T04:30:59;47.08;;;17.52;;
51260;SDS011;61705;46.228;24.812;2022-11-15T04:33:26;39.70;;;14.90;;
51260;SDS011;61705;46.228;24.812;2022-11-15T04:35:53;53.40;;;17.02;;
51260;SDS011;61705;46.228;24.812;2022-11-15T04:38:38;49.92;;;19.10;;
51260;SDS011;61705;46.228;24.812;2022-11-15T04:41:04;59.03;;;20.88;;
51260;SDS011;61705;46.228;24.812;2022-11-15T04:43:31;50.70;;;22.17;;
51260;SDS011;61705;46.228;24.812;2022-11-15T04:45:58;61.03;;;15.98;;
51260;SDS011;61705;46.228;24.812;2022-11-15T04:48:25;39.30;;;16.80;;
51260;SDS011;61705;46.228;24.812;2022-11-15T04:50:51;49.42;;;17.80;;
51260;SDS011;61705;46.228;24.812;2022-11-15T04:53:18;63.92;;;19.67;;
51260;SDS011;61705;46.228;24.812;2022-11-15T04:55:45;40.72;;;15.50;;
51260;SDS011;61705;46.228;24.812;2022-11-15T04:58:12;39.92;;;15.65;;
51260;SDS011;61705;46.228;24.812;2022-11-15T05:00:39;54.47;;;17.52;;
51260;SDS011;61705;46.228;24.812;2022-11-15T05:03:06;40.58;;;16.30;;
51260;SDS011;61705;46.228;24.812;2022-11-15T05:05:53;36.88;;;14.90;;
51260;SDS011;61705;46.228;24.812;2022-11-15T05:08:20;50.97;;;16.83;;
51260;SDS011;61705;46.228;24.812;2022-11-15T05:10:47;26.38;;;10.10;;
51260;SDS011;61705;46.228;24.812;2022-11-15T05:13:14;30.83;;;10.25;;
51260;SDS011;61705;46.228;24.812;2022-11-15T05:15:40;39.17;;;16.30;;
51260;SDS011;61705;46.228;24.812;2022-11-15T05:18:07;54.03;;;18.05;;
51260;SDS011;61705;46.228;24.812;2022-11-15T05:20:34;52.45;;;17.17;;
51260;SDS011;61705;46.228;24.812;2022-11-15T05:23:00;48.03;;;19.63;;
51260;SDS011;61705;46.228;24.812;2022-11-15T05:25:27;55.13;;;20.05;;
51260;SDS011;61705;46.228;24.812;2022-11-15T05:27:54;38.17;;;15.85;;
51260;SDS011;61705;46.228;24.812;2022-11-15T05:30:23;48.40;;;18.00;;
51260;SDS011;61705;46.228;24.812;2022-11-15T05:32:50;59.85;;;18.42;;
51260;SDS011;61705;46.228;24.812;2022-11-15T05:35:21;47.22;;;18.67;;
51260;SDS011;61705;46.228;24.812;2022-11-15T05:38:00;50.38;;;20.38;;
51260;SDS011;61705;46.228;24.812;2022-11-15T05:40:27;51.28;;;19.92;;
51260;SDS011;61705;46.228;24.812;2022-11-15T05:42:56;53.00;;;18.88;;
51260;SDS011;61705;46.228;24.812;2022-11-15T05:45:25;57.85;;;20.38;;
51260;SDS011;61705;46.228;24.812;2022-11-15T05:47:52;59.45;;;20.17;;
51260;SDS011;61705;46.228;24.812;2022-11-15T05:50:23;56.78;;;19.27;;
51260;SDS011;61705;46.228;24.812;2022-11-15T05:52:50;51.45;;;20.85;;
51260;SDS011;61705;46.228;24.812;2022-11-15T05:55:17;53.53;;;17.98;;
51260;SDS011;61705;46.228;24.812;2022-11-15T05:57:44;47.17;;;19.08;;
51260;SDS011;61705;46.228;24.812;2022-11-15T06:00:11;53.13;;;19.10;;
51260;SDS011;61705;46.228;24.812;2022-11-15T06:02:38;37.42;;;16.45;;
51260;SDS011;61705;46.228;24.812;2022-11-15T06:05:05;45.97;;;18.83;;
51260;SDS011;61705;46.228;24.812;2022-11-15T06:07:32;40.25;;;16.73;;
51260;SDS011;61705;46.228;24.812;2022-11-15T06:09:59;37.25;;;10.35;;
51260;SDS011;61705;46.228;24.812;2022-11-15T06:12:25;32.65;;;14.45;;
51260;SDS011;61705;46.228;24.812;2022-11-15T06:14:52;45.35;;;16.60;;
51260;SDS011;61705;46.228;24.812;2022-11-15T06:17:19;48.67;;;14.90;;
51260;SDS011;61705;46.228;24.812;2022-11-15T06:19:45;43.40;;;14.55;;
51260;SDS011;61705;46.228;24.812;2022-11-15T06:22:12;42.08;;;16.38;;
51260;SDS011;61705;46.228;24.812;2022-11-15T06:24:39;40.90;;;15.90;;
51260;SDS011;61705;46.228;24.812;2022-11-15T06:27:06;54.85;;;19.42;;
51260;SDS011;61705;46.228;24.812;2022-11-15T06:29:32;63.58;;;17.27;;
51260;SDS011;61705;46.228;24.812;2022-11-15T06:31:59;54.00;;;17.45;;
51260;SDS011;61705;46.228;24.812;2022-11-15T06:34:25;43.65;;;15.85;;
51260;SDS011;61705;46.228;24.812;2022-11-15T06:36:52;47.78;;;16.00;;
51260;SDS011;61705;46.228;24.812;2022-11-15T06:39:19;43.50;;;16.27;;
51260;SDS011;61705;46.228;24.812;2022-11-15T06:41:46;56.38;;;19.70;;
51260;SDS011;61705;46.228;24.812;2022-11-15T06:44:13;42.40;;;17.35;;
51260;SDS011;61705;46.228;24.812;2022-11-15T06:46:39;42.53;;;16.10;;
51260;SDS011;61705;46.228;24.812;2022-11-15T06:49:06;41.50;;;17.27;;
51260;SDS011;61705;46.228;24.812;2022-11-15T06:51:35;39.42;;;14.95;;
51260;SDS011;61705;46.228;24.812;2022-11-15T06:54:01;36.97;;;13.50;;
51260;SDS011;61705;46.228;24.812;2022-11-15T06:56:30;52.25;;;21.15;;
51260;SDS011;61705;46.228;24.812;2022-11-15T06:58:56;42.78;;;17.58;;
51260;SDS011;61705;46.228;24.812;2022-11-15T07:01:23;53.55;;;21.58;;
51260;SDS011;61705;46.228;24.812;2022-11-15T07:03:50;56.67;;;19.00;;
51260;SDS011;61705;46.228;24.812;2022-11-15T07:06:16;46.70;;;19.60;;
51260;SDS011;61705;46.228;24.812;2022-11-15T07:08:43;47.92;;;18.17;;
51260;SDS011;61705;46.228;24.812;2022-11-15T07:11:10;68.03;;;20.83;;
51260;SDS011;61705;46.228;24.812;2022-11-15T07:13:36;55.88;;;19.33;;
51260;SDS011;61705;46.228;24.812;2022-11-15T07:16:04;50.92;;;18.13;;
51260;SDS011;61705;46.228;24.812;2022-11-15T07:18:33;48.35;;;18.98;;
51260;SDS011;61705;46.228;24.812;2022-11-15T07:21:02;50.08;;;15.57;;
51260;SDS011;61705;46.228;24.812;2022-11-15T07:23:30;58.58;;;18.67;;
51260;SDS011;61705;46.228;24.812;2022-11-15T07:25:57;53.20;;;14.30;;
51260;SDS011;61705;46.228;24.812;2022-11-15T07:28:25;45.63;;;18.75;;
51260;SDS011;61705;46.228;24.812;2022-11-15T07:30:53;41.30;;;13.73;;
51260;SDS011;61705;46.228;24.812;2022-11-15T07:33:19;31.10;;;12.55;;
51260;SDS011;61705;46.228;24.812;2022-11-15T07:35:46;54.22;;;15.50;;
51260;SDS011;61705;46.228;24.812;2022-11-15T07:38:16;42.92;;;17.02;;
51260;SDS011;61705;46.228;24.812;2022-11-15T07:40:47;50.45;;;18.98;;
51260;SDS011;61705;46.228;24.812;2022-11-15T07:43:13;42.05;;;16.15;;
51260;SDS011;61705;46.228;24.812;2022-11-15T07:45:44;44.10;;;16.42;;
51260;SDS011;61705;46.228;24.812;2022-11-15T07:48:11;41.90;;;18.38;;
51260;SDS011;61705;46.228;24.812;2022-11-15T07:50:41;49.22;;;18.85;;
51260;SDS011;61705;46.228;24.812;2022-11-15T07:53:09;42.17;;;18.17;;
51260;SDS011;61705;46.228;24.812;2022-11-15T07:55:36;67.57;;;18.92;;
51260;SDS011;61705;46.228;24.812;2022-11-15T07:58:09;56.45;;;20.13;;
51260;SDS011;61705;46.228;24.812;2022-11-15T08:00:37;42.53;;;17.77;;
51260;SDS011;61705;46.228;24.812;2022-11-15T08:03:08;46.63;;;17.15;;
51260;SDS011;61705;46.228;24.812;2022-11-15T08:05:37;41.08;;;15.82;;
51260;SDS011;61705;46.228;24.812;2022-11-15T08:08:04;35.88;;;14.23;;
51260;SDS011;61705;46.228;24.812;2022-11-15T08:10:32;42.50;;;16.17;;
51260;SDS011;61705;46.228;24.812;2022-11-15T08:13:09;49.75;;;17.75;;
51260;SDS011;61705;46.228;24.812;2022-11-15T08:15:37;33.00;;;13.75;;
51260;SDS011;61705;46.228;24.812;2022-11-15T08:18:14;43.10;;;15.38;;
51260;SDS011;61705;46.228;24.812;2022-11-15T08:20:42;50.08;;;18.75;;
51260;SDS011;61705;46.228;24.812;2022-11-15T08:23:10;47.55;;;13.20;;
51260;SDS011;61705;46.228;24.812;2022-11-15T08:25:39;69.95;;;21.88;;
51260;SDS011;61705;46.228;24.812;2022-11-15T08:28:06;45.63;;;17.58;;
51260;SDS011;61705;46.228;24.812;2022-11-15T08:30:34;46.67;;;17.58;;
51260;SDS011;61705;46.228;24.812;2022-11-15T08:33:03;43.17;;;17.08;;
51260;SDS011;61705;46.228;24.812;2022-11-15T08:35:30;58.13;;;18.80;;
51260;SDS011;61705;46.228;24.812;2022-11-15T08:37:57;42.72;;;15.30;;
51260;SDS011;61705;46.228;24.812;2022-11-15T08:40:23;56.42;;;19.05;;
51260;SDS011;61705;46.228;24.812;2022-11-15T08:42:50;48.60;;;17.85;;
51260;SDS011;61705;46.228;24.812;2022-11-15T08:45:17;42.78;;;16.80;;
51260;SDS011;61705;46.228;24.812;2022-11-15T08:47:44;59.85;;;19.70;;
51260;SDS011;61705;46.228;24.812;2022-11-15T08:52:45;49.42;;;18.50;;
51260;SDS011;61705;46.228;24.812;2022-11-15T08:55:14;57.50;;;19.98;;
51260;SDS011;61705;46.228;24.812;2022-11-15T08:57:43;78.78;;;25.83;;
51260;SDS011;61705;46.228;24.812;2022-11-15T09:00:09;60.30;;;22.33;;
51260;SDS011;61705;46.228;24.812;2022-11-15T09:02:41;56.85;;;20.48;;
51260;SDS011;61705;46.228;24.812;2022-11-15T09:05:08;57.08;;;22.80;;
51260;SDS011;61705;46.228;24.812;2022-11-15T09:07:35;58.70;;;21.83;;
51260;SDS011;61705;46.228;24.812;2022-11-15T09:10:02;62.72;;;22.27;;
51260;SDS011;61705;46.228;24.812;2022-11-15T09:12:29;61.78;;;24.02;;
51260;SDS011;61705;46.228;24.812;2022-11-15T09:14:56;61.10;;;21.98;;
51260;SDS011;61705;46.228;24.812;2022-11-15T09:17:22;46.95;;;19.05;;
51260;SDS011;61705;46.228;24.812;2022-11-15T09:19:50;52.10;;;20.02;;
51260;SDS011;61705;46.228;24.812;2022-11-15T09:22:17;43.25;;;18.63;;
51260;SDS011;61705;46.228;24.812;2022-11-15T09:24:44;54.60;;;20.80;;
51260;SDS011;61705;46.228;24.812;2022-11-15T09:27:11;69.22;;;24.77;;
51260;SDS011;61705;46.228;24.812;2022-11-15T09:29:38;57.92;;;23.83;;
51260;SDS011;61705;46.228;24.812;2022-11-15T09:32:05;59.17;;;24.58;;
51260;SDS011;61705;46.228;24.812;2022-11-15T09:34:32;64.13;;;24.88;;
51260;SDS011;61705;46.228;24.812;2022-11-15T09:36:59;58.78;;;23.35;;
51260;SDS011;61705;46.228;24.812;2022-11-15T09:39:25;48.63;;;22.60;;
51260;SDS011;61705;46.228;24.812;2022-11-15T09:50:12;58.78;;;22.02;;
51260;SDS011;61705;46.228;24.812;2022-11-15T09:52:44;46.70;;;19.73;;
51260;SDS011;61705;46.228;24.812;2022-11-15T09:55:11;61.92;;;23.23;;
51260;SDS011;61705;46.228;24.812;2022-11-15T09:57:50;58.85;;;22.98;;
51260;SDS011;61705;46.228;24.812;2022-11-15T10:00:36;67.20;;;26.92;;
51260;SDS011;61705;46.228;24.812;2022-11-15T10:03:25;48.67;;;20.27;;
51260;SDS011;61705;46.228;24.812;2022-11-15T10:05:57;36.78;;;17.80;;
51260;SDS011;61705;46.228;24.812;2022-11-15T10:11:21;40.90;;;17.23;;
51260;SDS011;61705;46.228;24.812;2022-11-15T10:14:10;41.80;;;16.88;;
51260;SDS011;61705;46.228;24.812;2022-11-15T10:19:19;37.70;;;16.83;;
51260;SDS011;61705;46.228;24.812;2022-11-15T10:24:39;43.90;;;16.63;;
51260;SDS011;61705;46.228;24.812;2022-11-15T10:27:15;33.50;;;15.25;;
51260;SDS011;61705;46.228;24.812;2022-11-15T10:29:46;31.17;;;14.38;;
51260;SDS011;61705;46.228;24.812;2022-11-15T10:32:16;33.83;;;13.15;;
51260;SDS011;61705;46.228;24.812;2022-11-15T10:34:44;30.17;;;13.70;;
51260;SDS011;61705;46.228;24.812;2022-11-15T10:37:14;28.00;;;12.60;;
51260;SDS011;61705;46.228;24.812;2022-11-15T10:39:41;35.53;;;15.25;;
51260;SDS011;61705;46.228;24.812;2022-11-15T10:42:26;43.47;;;19.92;;
51260;SDS011;61705;46.228;24.812;2022-11-15T10:44:55;27.98;;;12.35;;
51260;SDS011;61705;46.228;24.812;2022-11-15T10:50:06;25.27;;;11.43;;
51260;SDS011;61705;46.228;24.812;2022-11-15T10:52:52;22.90;;;10.80;;
51260;SDS011;61705;46.228;24.812;2022-11-15T10:55:21;35.92;;;13.00;;
51260;SDS011;61705;46.228;24.812;2022-11-15T10:57:55;36.55;;;12.18;;
51260;SDS011;61705;46.228;24.812;2022-11-15T11:00:45;23.95;;;12.02;;
51260;SDS011;61705;46.228;24.812;2022-11-15T11:03:29;41.90;;;17.10;;
51260;SDS011;61705;46.228;24.812;2022-11-15T11:06:21;34.05;;;14.30;;
51260;SDS011;61705;46.228;24.812;2022-11-15T11:11:47;26.40;;;12.55;;
51260;SDS011;61705;46.228;24.812;2022-11-15T11:14:21;24.00;;;11.73;;
51260;SDS011;61705;46.228;24.812;2022-11-15T11:28:39;36.20;;;16.13;;
51260;SDS011;61705;46.228;24.812;2022-11-15T11:39:34;26.27;;;13.38;;
51260;SDS011;61705;46.228;24.812;2022-11-15T11:42:10;28.83;;;14.57;;
51260;SDS011;61705;46.228;24.812;2022-11-15T11:45:40;34.53;;;16.52;;
51260;SDS011;61705;46.228;24.812;2022-11-15T11:47:38;32.08;;;13.95;;
51260;SDS011;61705;46.228;24.812;2022-11-15T11:50:19;29.50;;;15.07;;
51260;SDS011;61705;46.228;24.812;2022-11-15T11:53:24;29.42;;;14.25;;
51260;SDS011;61705;46.228;24.812;2022-11-15T11:55:56;25.73;;;12.75;;
51260;SDS011;61705;46.228;24.812;2022-11-15T11:58:34;25.25;;;12.13;;
51260;SDS011;61705;46.228;24.812;2022-11-15T12:03:39;35.50;;;20.30;;
51260;SDS011;61705;46.228;24.812;2022-11-15T12:16:59;41.17;;;19.05;;
51260;SDS011;61705;46.228;24.812;2022-11-15T12:19:26;29.45;;;15.55;;
51260;SDS011;61705;46.228;24.812;2022-11-15T12:22:03;31.83;;;17.15;;
51260;SDS011;61705;46.228;24.812;2022-11-15T12:24:38;44.50;;;18.65;;
51260;SDS011;61705;46.228;24.812;2022-11-15T12:27:17;44.42;;;19.65;;
51260;SDS011;61705;46.228;24.812;2022-11-15T12:29:53;35.78;;;16.80;;
51260;SDS011;61705;46.228;24.812;2022-11-15T12:34:57;32.58;;;16.85;;
51260;SDS011;61705;46.228;24.812;2022-11-15T12:45:41;35.28;;;17.52;;
51260;SDS011;61705;46.228;24.812;2022-11-15T12:53:32;33.30;;;17.48;;
51260;SDS011;61705;46.228;24.812;2022-11-15T13:01:09;39.67;;;19.67;;
51260;SDS011;61705;46.228;24.812;2022-11-15T13:06:49;30.58;;;15.75;;
51260;SDS011;61705;46.228;24.812;2022-11-15T13:14:54;36.53;;;16.08;;
51260;SDS011;61705;46.228;24.812;2022-11-15T13:17:34;29.63;;;15.10;;
51260;SDS011;61705;46.228;24.812;2022-11-15T13:22:40;34.63;;;16.60;;
51260;SDS011;61705;46.228;24.812;2022-11-15T13:39:47;35.33;;;15.57;;
51260;SDS011;61705;46.228;24.812;2022-11-15T13:42:19;33.50;;;15.02;;
51260;SDS011;61705;46.228;24.812;2022-11-15T13:44:56;34.22;;;16.38;;
51260;SDS011;61705;46.228;24.812;2022-11-15T13:47:29;30.45;;;16.92;;
51260;SDS011;61705;46.228;24.812;2022-11-15T13:49:59;36.28;;;17.63;;
51260;SDS011;61705;46.228;24.812;2022-11-15T13:52:37;34.20;;;16.30;;
51260;SDS011;61705;46.228;24.812;2022-11-15T13:55:13;31.58;;;17.85;;
51260;SDS011;61705;46.228;24.812;2022-11-15T13:57:57;37.95;;;19.75;;
51260;SDS011;61705;46.228;24.812;2022-11-15T14:00:29;40.50;;;19.27;;
51260;SDS011;61705;46.228;24.812;2022-11-15T14:08:33;34.80;;;17.23;;
51260;SDS011;61705;46.228;24.812;2022-11-15T14:11:09;43.33;;;18.98;;
51260;SDS011;61705;46.228;24.812;2022-11-15T14:13:36;33.25;;;15.73;;
51260;SDS011;61705;46.228;24.812;2022-11-15T14:16:17;33.33;;;16.75;;
51260;SDS011;61705;46.228;24.812;2022-11-15T14:18:47;38.95;;;17.58;;
51260;SDS011;61705;46.228;24.812;2022-11-15T14:21:16;34.10;;;17.05;;
51260;SDS011;61705;46.228;24.812;2022-11-15T14:23:44;31.67;;;17.05;;
51260;SDS011;61705;46.228;24.812;2022-11-15T14:26:33;33.28;;;18.15;;
51260;SDS011;61705;46.228;24.812;2022-11-15T14:32:12;34.38;;;16.67;;
51260;SDS011;61705;46.228;24.812;2022-11-15T14:34:39;34.92;;;16.90;;
51260;SDS011;61705;46.228;24.812;2022-11-15T14:37:10;34.83;;;17.33;;
51260;SDS011;61705;46.228;24.812;2022-11-15T14:39:49;35.63;;;19.00;;
51260;SDS011;61705;46.228;24.812;2022-11-15T14:42:17;32.60;;;18.30;;
51260;SDS011;61705;46.228;24.812;2022-11-15T14:44:44;31.33;;;17.77;;
51260;SDS011;61705;46.228;24.812;2022-11-15T14:47:11;53.63;;;24.35;;
51260;SDS011;61705;46.228;24.812;2022-11-15T14:49:38;35.22;;;17.75;;
51260;SDS011;61705;46.228;24.812;2022-11-15T14:52:17;30.65;;;16.02;;
51260;SDS011;61705;46.228;24.812;2022-11-15T14:54:47;38.53;;;21.35;;
51260;SDS011;61705;46.228;24.812;2022-11-15T14:57:13;30.48;;;15.55;;
51260;SDS011;61705;46.228;24.812;2022-11-15T14:59:40;34.78;;;16.50;;
51260;SDS011;61705;46.228;24.812;2022-11-15T15:02:25;42.70;;;19.75;;
51260;SDS011;61705;46.228;24.812;2022-11-15T15:05:08;40.83;;;18.33;;
51260;SDS011;61705;46.228;24.812;2022-11-15T15:07:59;54.70;;;28.02;;
51260;SDS011;61705;46.228;24.812;2022-11-15T15:10:37;31.30;;;17.67;;
51260;SDS011;61705;46.228;24.812;2022-11-15T15:13:12;40.75;;;19.40;;
51260;SDS011;61705;46.228;24.812;2022-11-15T15:18:10;31.55;;;16.05;;
51260;SDS011;61705;46.228;24.812;2022-11-15T15:20:38;31.65;;;15.77;;
51260;SDS011;61705;46.228;24.812;2022-11-15T15:23:24;35.35;;;17.40;;
51260;SDS011;61705;46.228;24.812;2022-11-15T15:25:53;33.20;;;16.08;;
51260;SDS011;61705;46.228;24.812;2022-11-15T15:28:19;32.03;;;17.05;;
51260;SDS011;61705;46.228;24.812;2022-11-15T15:30:46;36.58;;;17.13;;
51260;SDS011;61705;46.228;24.812;2022-11-15T15:33:13;41.00;;;17.67;;
51260;SDS011;61705;46.228;24.812;2022-11-15T15:35:40;35.17;;;15.70;;
51260;SDS011;61705;46.228;24.812;2022-11-15T15:38:13;35.92;;;17.10;;
51260;SDS011;61705;46.228;24.812;2022-11-15T15:43:08;32.33;;;17.00;;
51260;SDS011;61705;46.228;24.812;2022-11-15T15:45:40;35.25;;;16.10;;
51260;SDS011;61705;46.228;24.812;2022-11-15T15:48:12;37.28;;;17.00;;
51260;SDS011;61705;46.228;24.812;2022-11-15T15:50:44;40.08;;;19.15;;
51260;SDS011;61705;46.228;24.812;2022-11-15T15:53:11;35.65;;;17.90;;
51260;SDS011;61705;46.228;24.812;2022-11-15T15:55:41;38.72;;;20.85;;
51260;SDS011;61705;46.228;24.812;2022-11-15T15:58:07;43.38;;;24.00;;
51260;SDS011;61705;46.228;24.812;2022-11-15T16:04:00;49.55;;;25.35;;
51260;SDS011;61705;46.228;24.812;2022-11-15T16:09:58;56.78;;;27.05;;
51260;SDS011;61705;46.228;24.812;2022-11-15T16:19:07;56.92;;;29.23;;
51260;SDS011;61705;46.228;24.812;2022-11-15T16:21:39;59.60;;;31.45;;
51260;SDS011;61705;46.228;24.812;2022-11-15T16:24:05;62.03;;;31.17;;
51260;SDS011;61705;46.228;24.812;2022-11-15T16:26:38;58.33;;;27.58;;
51260;SDS011;61705;46.228;24.812;2022-11-15T16:29:11;68.80;;;36.00;;
51260;SDS011;61705;46.228;24.812;2022-11-15T16:31:38;57.88;;;28.15;;
51260;SDS011;61705;46.228;24.812;2022-11-15T16:34:04;56.78;;;33.53;;
51260;SDS011;61705;46.228;24.812;2022-11-15T16:36:33;56.95;;;28.77;;
51260;SDS011;61705;46.228;24.812;2022-11-15T16:39:00;65.00;;;32.13;;
51260;SDS011;61705;46.228;24.812;2022-11-15T16:41:30;66.30;;;30.88;;
51260;SDS011;61705;46.228;24.812;2022-11-15T16:43:57;60.75;;;29.70;;
51260;SDS011;61705;46.228;24.812;2022-11-15T16:46:25;65.28;;;31.30;;
51260;SDS011;61705;46.228;24.812;2022-11-15T16:48:55;53.70;;;26.80;;
51260;SDS011;61705;46.228;24.812;2022-11-15T16:51:22;58.83;;;29.33;;
51260;SDS011;61705;46.228;24.812;2022-11-15T16:53:49;61.65;;;30.98;;
51260;SDS011;61705;46.228;24.812;2022-11-15T16:58:42;59.00;;;25.30;;
51260;SDS011;61705;46.228;24.812;2022-11-15T17:01:14;58.65;;;30.13;;
51260;SDS011;61705;46.228;24.812;2022-11-15T17:06:10;51.78;;;24.15;;
51260;SDS011;61705;46.228;24.812;2022-11-15T17:08:38;61.65;;;29.63;;
51260;SDS011;61705;46.228;24.812;2022-11-15T17:11:06;60.17;;;29.35;;
51260;SDS011;61705;46.228;24.812;2022-11-15T17:13:33;60.60;;;28.67;;
51260;SDS011;61705;46.228;24.812;2022-11-15T17:16:03;58.63;;;28.00;;
51260;SDS011;61705;46.228;24.812;2022-11-15T17:18:37;54.25;;;25.45;;